createdAt,value
2019-03-30T00:02:06.257Z,32.40
2019-03-30T00:04:34.723Z,37.13
2019-03-30T00:07:03.196Z,44.53
2019-03-30T00:09:31.688Z,38.30
2019-03-30T00:12:00.148Z,39.87
2019-03-30T00:14:28.598Z,45.70
2019-03-30T00:16:57.115Z,42.00
2019-03-30T00:19:34.894Z,41.70
2019-03-30T00:21:55.942Z,40.67
2019-03-30T00:24:24.470Z,45.40
2019-03-30T00:26:53.071Z,43.87
2019-03-30T00:29:21.539Z,40.30
2019-03-30T00:31:50.035Z,40.27
2019-03-30T00:34:18.501Z,42.50
2019-03-30T00:36:47.175Z,40.77
2019-03-30T00:39:15.647Z,44.23
2019-03-30T00:41:44.123Z,41.37
2019-03-30T00:44:12.595Z,51.27
2019-03-30T00:46:41.112Z,38.83
2019-03-30T00:49:09.568Z,42.90
2019-03-30T00:51:38.187Z,37.93
2019-03-30T00:54:06.694Z,40.53
2019-03-30T00:56:35.165Z,49.80
2019-03-30T00:59:03.620Z,48.00
2019-03-30T01:01:32.197Z,41.23
2019-03-30T01:04:00.677Z,46.97
2019-03-30T01:06:29.214Z,42.27
2019-03-30T01:08:57.708Z,45.67
2019-03-30T01:11:26.180Z,40.83
2019-03-30T01:13:54.638Z,43.60
2019-03-30T01:16:23.146Z,49.90
2019-03-30T01:18:51.603Z,41.57
2019-03-30T01:21:20.066Z,47.07
2019-03-30T01:23:48.670Z,40.50
2019-03-30T01:26:17.133Z,46.70
2019-03-30T01:28:45.595Z,53.63
2019-03-30T01:31:14.099Z,49.77
2019-03-30T01:33:42.569Z,48.23
2019-03-30T01:36:11.098Z,47.20
2019-03-30T01:38:39.593Z,50.67
2019-03-30T01:41:08.214Z,50.13
2019-03-30T01:43:36.816Z,48.53
2019-03-30T01:46:05.323Z,49.83
2019-03-30T01:48:33.788Z,47.23
2019-03-30T01:51:02.259Z,50.97
2019-03-30T01:53:30.787Z,42.57
2019-03-30T01:55:59.250Z,52.57
2019-03-30T01:58:27.723Z,50.97
2019-03-30T02:00:56.238Z,44.40
2019-03-30T02:03:24.716Z,44.87
2019-03-30T02:05:53.174Z,52.00
2019-03-30T02:08:21.671Z,56.77
2019-03-30T02:10:50.129Z,56.03
2019-03-30T02:13:18.582Z,53.67
2019-03-30T02:15:47.085Z,57.00
2019-03-30T02:18:15.544Z,57.10
2019-03-30T02:20:46.429Z,56.13
2019-03-30T02:23:14.933Z,65.43
2019-03-30T02:25:43.785Z,50.83
2019-03-30T02:28:12.297Z,56.00
2019-03-30T02:30:40.800Z,56.40
2019-03-30T02:33:09.374Z,61.27
2019-03-30T02:35:37.814Z,54.03
2019-03-30T02:38:06.402Z,57.67
2019-03-30T02:40:34.849Z,61.50
2019-03-30T02:43:03.326Z,57.23
2019-03-30T02:45:31.840Z,54.37
2019-03-30T02:48:00.320Z,52.10
2019-03-30T02:50:28.796Z,49.63
2019-03-30T02:52:57.288Z,63.47
2019-03-30T02:55:25.764Z,65.23
2019-03-30T02:57:54.218Z,56.63
2019-03-30T03:00:22.710Z,55.37
2019-03-30T03:02:51.167Z,65.20
2019-03-30T03:05:20.011Z,65.27
2019-03-30T03:07:48.524Z,56.37
2019-03-30T03:10:17.148Z,60.80
2019-03-30T03:12:45.650Z,74.63
2019-03-30T03:15:14.315Z,64.07
2019-03-30T03:17:42.785Z,57.10
2019-03-30T03:20:11.310Z,66.97
2019-03-30T03:22:39.815Z,58.83
2019-03-30T03:25:08.560Z,59.37
2019-03-30T03:27:37.445Z,64.27
2019-03-30T03:30:06.674Z,61.17
2019-03-30T03:32:35.185Z,54.00
2019-03-30T03:35:03.635Z,64.47
2019-03-30T03:37:44.834Z,59.70
2019-03-30T03:40:02.311Z,65.37
2019-03-30T03:42:30.762Z,60.30
2019-03-30T03:44:59.290Z,59.13
2019-03-30T03:47:27.753Z,57.33
2019-03-30T03:49:56.211Z,61.67
2019-03-30T03:52:24.701Z,58.73
2019-03-30T03:54:53.939Z,63.10
2019-03-30T03:57:22.570Z,75.83
2019-03-30T03:59:52.338Z,59.80
2019-03-30T04:02:21.581Z,71.00
2019-03-30T04:04:50.519Z,68.10
2019-03-30T04:07:19.506Z,63.83
2019-03-30T04:09:49.753Z,59.83
2019-03-30T04:12:18.791Z,61.43
2019-03-30T04:14:50.469Z,62.70
2019-03-30T04:17:19.006Z,73.00
2019-03-30T04:19:47.460Z,71.97
2019-03-30T04:22:15.979Z,68.40
2019-03-30T04:24:44.460Z,71.00
2019-03-30T04:27:12.922Z,68.10
2019-03-30T04:29:41.804Z,68.60
2019-03-30T04:32:10.274Z,71.03
2019-03-30T04:34:38.728Z,65.47
2019-03-30T04:37:07.222Z,67.23
2019-03-30T04:39:35.687Z,63.73
2019-03-30T04:42:04.216Z,67.30
2019-03-30T04:44:32.733Z,65.40
2019-03-30T04:47:01.208Z,61.87
2019-03-30T04:49:29.685Z,64.23
2019-03-30T04:51:58.334Z,62.03
2019-03-30T04:54:26.937Z,70.80
2019-03-30T04:56:55.397Z,59.70
2019-03-30T04:59:23.901Z,65.57
2019-03-30T05:01:52.383Z,73.20
2019-03-30T05:04:20.863Z,67.03
2019-03-30T05:06:49.385Z,68.93
2019-03-30T05:09:17.871Z,80.57
2019-03-30T05:11:46.344Z,76.63
2019-03-30T05:14:16.496Z,74.80
2019-03-30T05:16:44.987Z,65.43
2019-03-30T05:19:13.458Z,74.23
2019-03-30T05:21:41.941Z,60.43
2019-03-30T05:24:10.413Z,74.70
2019-03-30T05:26:38.883Z,72.73
2019-03-30T05:29:07.387Z,71.73
2019-03-30T05:31:36.079Z,79.17
2019-03-30T05:34:04.645Z,73.73
2019-03-30T05:36:33.179Z,69.83
2019-03-30T05:39:01.643Z,60.07
2019-03-30T05:41:30.103Z,64.60
2019-03-30T05:43:58.584Z,55.57
2019-03-30T05:46:27.050Z,61.53
2019-03-30T05:48:55.521Z,55.67
2019-03-30T05:51:24.018Z,62.83
2019-03-30T05:53:52.487Z,51.63
2019-03-30T05:56:20.958Z,49.00
2019-03-30T05:58:49.468Z,61.53
2019-03-30T06:01:17.928Z,62.27
2019-03-30T06:03:46.471Z,57.20
2019-03-30T06:06:14.950Z,61.60
2019-03-30T06:08:43.423Z,62.23
2019-03-30T06:11:11.882Z,64.00
2019-03-30T06:13:40.395Z,59.40
2019-03-30T06:16:08.867Z,61.50
2019-03-30T06:18:37.322Z,65.37
2019-03-30T06:21:05.865Z,53.43
2019-03-30T06:23:34.321Z,51.47
2019-03-30T06:26:02.781Z,65.10
2019-03-30T06:28:31.283Z,64.63
2019-03-30T06:30:59.738Z,51.87
2019-03-30T06:33:28.305Z,63.30
2019-03-30T06:35:56.794Z,65.33
2019-03-30T06:38:25.265Z,70.03
2019-03-30T06:40:53.726Z,53.33
2019-03-30T06:43:22.231Z,53.43
2019-03-30T06:45:50.700Z,53.03
2019-03-30T06:48:19.171Z,49.10
2019-03-30T06:50:48.326Z,54.93
2019-03-30T06:53:16.807Z,52.10
2019-03-30T06:55:45.267Z,57.10
2019-03-30T06:58:13.763Z,46.83
2019-03-30T07:00:42.224Z,53.97
2019-03-30T07:03:10.690Z,49.17
2019-03-30T07:05:39.928Z,51.70
2019-03-30T07:08:11.557Z,51.80
2019-03-30T07:10:40.046Z,49.30
2019-03-30T07:13:08.922Z,52.47
2019-03-30T07:15:40.566Z,54.53
2019-03-30T07:18:09.109Z,52.90
2019-03-30T07:20:37.595Z,55.47
2019-03-30T07:23:12.285Z,51.33
2019-03-30T07:25:36.253Z,52.27
2019-03-30T07:28:04.751Z,50.50
2019-03-30T07:30:33.208Z,51.77
2019-03-30T07:33:01.674Z,47.03
2019-03-30T07:35:31.253Z,53.73
2019-03-30T07:37:59.727Z,55.43
2019-03-30T07:40:28.218Z,50.77
2019-03-30T07:42:56.802Z,51.40
2019-03-30T07:45:25.278Z,46.47
2019-03-30T07:47:53.749Z,47.00
2019-03-30T07:50:22.317Z,51.40
2019-03-30T07:52:50.786Z,53.57
2019-03-30T07:55:19.252Z,47.97
2019-03-30T07:57:47.878Z,48.57
2019-03-30T08:00:16.418Z,45.83
2019-03-30T08:02:44.880Z,49.97
2019-03-30T08:05:13.633Z,43.73
2019-03-30T08:07:42.110Z,49.07
2019-03-30T08:10:10.837Z,48.30
2019-03-30T08:12:39.340Z,46.57
2019-03-30T08:15:08.859Z,49.87
2019-03-30T08:17:37.319Z,51.00
2019-03-30T08:20:07.368Z,44.90
2019-03-30T08:22:35.834Z,46.47
2019-03-30T08:25:05.926Z,42.97
2019-03-30T08:27:34.421Z,47.10
2019-03-30T08:30:03.065Z,47.33
2019-03-30T08:32:31.537Z,44.83
2019-03-30T08:35:00.036Z,52.77
2019-03-30T08:37:28.782Z,44.30
2019-03-30T08:39:57.261Z,50.13
2019-03-30T08:42:25.784Z,46.00
2019-03-30T08:44:54.256Z,38.77
2019-03-30T08:47:22.715Z,51.00
2019-03-30T08:49:51.225Z,45.30
2019-03-30T08:52:19.686Z,49.27
2019-03-30T08:54:49.627Z,43.60
2019-03-30T08:57:18.108Z,48.70
2019-03-30T08:59:46.586Z,41.83
2019-03-30T09:02:15.465Z,44.37
2019-03-30T09:04:44.040Z,37.77
2019-03-30T09:07:12.516Z,42.27
2019-03-30T09:09:40.988Z,32.53
2019-03-30T09:12:09.514Z,36.37
2019-03-30T09:14:37.999Z,34.90
2019-03-30T09:17:06.484Z,43.33
2019-03-30T09:19:35.021Z,38.80
2019-03-30T09:22:03.566Z,44.57
2019-03-30T09:24:32.043Z,38.30
2019-03-30T09:27:00.559Z,31.50
2019-03-30T09:29:29.027Z,36.07
2019-03-30T09:31:57.501Z,41.63
2019-03-30T09:34:26.004Z,43.80
2019-03-30T09:36:54.708Z,41.17
2019-03-30T09:39:23.256Z,40.37
2019-03-30T09:41:51.739Z,37.10
2019-03-30T09:44:21.942Z,40.23
2019-03-30T09:46:50.414Z,39.07
2019-03-30T09:49:18.885Z,39.13
2019-03-30T09:51:47.349Z,35.47
2019-03-30T09:54:23.536Z,39.87
2019-03-30T09:56:46.046Z,39.90
2019-03-30T09:59:14.538Z,38.87
2019-03-30T10:01:43.026Z,36.90
2019-03-30T10:04:11.524Z,34.77
2019-03-30T10:06:40.002Z,45.57
2019-03-30T10:09:08.555Z,35.53
2019-03-30T10:11:37.093Z,35.50
2019-03-30T10:14:05.635Z,36.30
2019-03-30T10:16:34.135Z,41.43
2019-03-30T10:19:02.606Z,46.50
2019-03-30T10:21:31.077Z,39.80
2019-03-30T10:23:59.581Z,38.00
2019-03-30T10:26:28.062Z,40.80
2019-03-30T10:28:56.625Z,46.33
2019-03-30T10:31:25.126Z,44.20
2019-03-30T10:33:53.607Z,44.20
2019-03-30T10:36:22.093Z,51.33
2019-03-30T10:38:50.627Z,44.13
2019-03-30T10:41:19.106Z,51.00
2019-03-30T10:43:47.567Z,42.30
2019-03-30T10:46:16.078Z,43.73
2019-03-30T10:48:44.551Z,39.97
2019-03-30T10:51:13.026Z,45.20
2019-03-30T10:53:41.543Z,46.37
2019-03-30T10:56:10.008Z,48.17
2019-03-30T10:58:38.490Z,40.13
2019-03-30T11:01:06.983Z,46.30
2019-03-30T11:03:35.470Z,44.37
2019-03-30T11:06:03.941Z,45.60
2019-03-30T11:08:32.466Z,43.93
2019-03-30T11:11:00.946Z,45.60
2019-03-30T11:13:29.449Z,41.60
2019-03-30T11:15:57.960Z,43.63
2019-03-30T11:18:26.458Z,39.67
2019-03-30T11:20:54.932Z,34.43
2019-03-30T11:23:23.473Z,41.33
2019-03-30T11:25:51.921Z,41.17
2019-03-30T11:28:20.988Z,38.90
2019-03-30T11:30:49.483Z,27.93
2019-03-30T11:33:17.949Z,30.83
2019-03-30T11:35:46.517Z,36.70
2019-03-30T11:38:15.256Z,37.77
2019-03-30T11:40:43.730Z,28.93
2019-03-30T11:43:12.202Z,32.00
2019-03-30T11:45:40.802Z,27.83
2019-03-30T11:48:09.271Z,30.33
2019-03-30T11:50:37.749Z,27.50
2019-03-30T11:53:06.276Z,34.83
2019-03-30T11:55:34.741Z,28.80
2019-03-30T11:58:03.233Z,26.50
2019-03-30T12:00:31.748Z,24.53
2019-03-30T12:03:00.289Z,30.30
2019-03-30T12:05:28.782Z,26.13
2019-03-30T12:07:57.359Z,23.13
2019-03-30T12:10:25.866Z,21.87
2019-03-30T12:12:54.335Z,24.73
2019-03-30T12:15:22.852Z,25.10
2019-03-30T12:17:51.334Z,25.00
2019-03-30T12:20:19.869Z,22.50
2019-03-30T12:22:48.396Z,27.00
2019-03-30T12:25:16.960Z,19.77
2019-03-30T12:27:45.474Z,27.10
2019-03-30T12:30:14.097Z,20.50
2019-03-30T12:32:42.570Z,19.10
2019-03-30T12:35:11.159Z,20.70
2019-03-30T12:37:39.644Z,22.97
2019-03-30T12:40:09.146Z,23.70
2019-03-30T12:42:37.623Z,21.00
2019-03-30T12:45:07.875Z,22.53
2019-03-30T12:47:36.421Z,18.97
2019-03-30T12:50:06.622Z,25.20
2019-03-30T12:52:35.191Z,22.80
2019-03-30T12:55:03.866Z,19.47
2019-03-30T12:57:32.471Z,14.57
2019-03-30T13:00:00.961Z,20.30
2019-03-30T13:02:29.493Z,15.67
2019-03-30T13:04:58.130Z,15.00
2019-03-30T13:07:26.638Z,22.10
2019-03-30T13:09:55.109Z,18.90
2019-03-30T13:12:23.574Z,15.80
2019-03-30T13:14:52.086Z,18.37
2019-03-30T13:17:20.552Z,22.77
2019-03-30T13:19:49.030Z,22.33
2019-03-30T13:22:17.526Z,19.07
2019-03-30T13:24:45.993Z,20.30
2019-03-30T13:27:14.476Z,22.93
2019-03-30T13:29:42.964Z,14.60
2019-03-30T13:32:11.441Z,19.27
2019-03-30T13:34:39.915Z,19.77
2019-03-30T13:37:20.051Z,16.07
2019-03-30T13:39:48.565Z,17.80
2019-03-30T13:42:17.132Z,20.40
2019-03-30T13:44:45.614Z,16.83
2019-03-30T13:47:14.079Z,17.17
2019-03-30T13:49:42.559Z,17.80
2019-03-30T13:52:11.074Z,17.93
2019-03-30T13:54:39.697Z,20.40
2019-03-30T13:57:08.197Z,18.40
2019-03-30T13:59:37.718Z,17.77
2019-03-30T14:02:06.185Z,20.87
2019-03-30T14:04:34.650Z,19.70
2019-03-30T14:07:03.141Z,16.03
2019-03-30T14:09:31.606Z,15.70
2019-03-30T14:12:00.072Z,15.90
2019-03-30T14:14:28.607Z,16.10
2019-03-30T14:16:57.078Z,17.73
2019-03-30T14:19:25.558Z,18.10
2019-03-30T14:21:54.061Z,23.00
2019-03-30T14:24:22.526Z,16.30
2019-03-30T14:26:51.010Z,21.80
2019-03-30T14:29:19.534Z,18.40
2019-03-30T14:31:48.051Z,15.70
2019-03-30T14:34:16.482Z,22.80
2019-03-30T14:36:44.988Z,23.10
2019-03-30T14:39:13.459Z,25.57
2019-03-30T14:41:41.929Z,21.33
2019-03-30T14:44:10.702Z,25.77
2019-03-30T14:46:39.218Z,20.20
2019-03-30T14:49:07.703Z,29.27
2019-03-30T14:51:36.297Z,22.73
2019-03-30T14:54:04.850Z,21.70
2019-03-30T14:56:44.961Z,22.70
2019-03-30T14:59:10.183Z,24.73
2019-03-30T15:01:33.756Z,25.03
2019-03-30T15:04:02.223Z,26.77
2019-03-30T15:06:30.732Z,26.80
2019-03-30T15:08:59.202Z,22.20
2019-03-30T15:11:27.775Z,21.87
2019-03-30T15:13:56.283Z,23.80
2019-03-30T15:16:24.746Z,24.33
2019-03-30T15:18:53.274Z,18.07
2019-03-30T15:21:21.720Z,20.53
2019-03-30T15:23:50.183Z,22.40
2019-03-30T15:26:21.972Z,17.83
2019-03-30T15:28:48.927Z,17.57
2019-03-30T15:31:17.389Z,20.33
2019-03-30T15:33:45.861Z,19.40
2019-03-30T15:36:14.375Z,18.07
2019-03-30T15:38:42.845Z,18.10
2019-03-30T15:41:11.307Z,15.03
2019-03-30T15:43:39.810Z,27.80
2019-03-30T15:46:08.401Z,19.80
2019-03-30T15:48:36.921Z,17.67
2019-03-30T15:51:05.427Z,18.00
2019-03-30T15:53:33.885Z,22.20
2019-03-30T15:56:02.416Z,18.43
2019-03-30T15:58:30.902Z,17.50
2019-03-30T16:00:59.374Z,17.63
2019-03-30T16:03:27.836Z,17.83
2019-03-30T16:05:56.342Z,18.97
2019-03-30T16:08:24.821Z,21.00
2019-03-30T16:10:53.293Z,22.33
2019-03-30T16:13:21.831Z,21.33
2019-03-30T16:15:50.346Z,18.03
2019-03-30T16:18:18.817Z,20.10
2019-03-30T16:20:47.330Z,19.93
2019-03-30T16:23:15.824Z,19.00
2019-03-30T16:25:44.298Z,19.47
2019-03-30T16:28:12.809Z,16.80
2019-03-30T16:30:41.347Z,17.37
2019-03-30T16:33:09.820Z,27.50
2019-03-30T16:35:38.333Z,27.87
2019-03-30T16:38:06.806Z,22.53
2019-03-30T16:40:35.269Z,21.20
2019-03-30T16:43:03.772Z,22.23
2019-03-30T16:45:32.239Z,21.43
2019-03-30T16:48:01.124Z,17.50
2019-03-30T16:50:29.628Z,17.77
2019-03-30T16:52:58.100Z,22.37
2019-03-30T16:55:26.582Z,21.83
2019-03-30T16:57:55.086Z,29.00
2019-03-30T17:00:23.565Z,34.53
2019-03-30T17:02:52.079Z,28.47
2019-03-30T17:05:20.568Z,19.83
2019-03-30T17:07:49.030Z,27.47
2019-03-30T17:10:17.555Z,32.33
2019-03-30T17:12:46.049Z,30.73
2019-03-30T17:15:14.982Z,20.77
2019-03-30T17:17:43.445Z,21.33
2019-03-30T17:20:12.135Z,25.33
2019-03-30T17:22:40.670Z,22.57
2019-03-30T17:25:09.215Z,24.73
2019-03-30T17:27:37.711Z,20.57
2019-03-30T17:30:09.400Z,27.60
2019-03-30T17:32:37.943Z,31.37
2019-03-30T17:35:07.148Z,35.63
2019-03-30T17:37:35.595Z,36.40
2019-03-30T17:40:08.157Z,35.30
2019-03-30T17:42:38.762Z,31.20
2019-03-30T17:45:09.134Z,44.50
2019-03-30T17:47:37.605Z,38.63
2019-03-30T17:50:07.659Z,34.53
2019-03-30T17:52:36.165Z,36.20
2019-03-30T17:55:04.978Z,39.20
2019-03-30T17:57:33.485Z,51.27
2019-03-30T18:00:01.957Z,72.23
2019-03-30T18:02:30.425Z,103.00
2019-03-30T18:04:58.953Z,116.93
2019-03-30T18:07:27.437Z,57.87
2019-03-30T18:09:55.900Z,49.73
2019-03-30T18:12:24.389Z,68.17
2019-03-30T18:14:52.863Z,43.93
2019-03-30T18:17:21.402Z,35.40
2019-03-30T18:19:49.925Z,44.40
2019-03-30T18:22:18.394Z,40.70
2019-03-30T18:24:46.866Z,33.90
2019-03-30T18:27:15.420Z,37.87
2019-03-30T18:29:43.984Z,40.87
2019-03-30T18:32:12.462Z,36.83
2019-03-30T18:34:41.545Z,29.80
2019-03-30T18:37:10.167Z,26.87
2019-03-30T18:39:38.640Z,20.70
2019-03-30T18:42:07.159Z,30.20
2019-03-30T18:44:35.894Z,30.67
2019-03-30T18:47:04.350Z,36.53
2019-03-30T18:49:32.846Z,31.53
2019-03-30T18:52:05.426Z,32.83
2019-03-30T18:54:34.132Z,41.30
2019-03-30T18:57:02.841Z,90.23
2019-03-30T18:59:31.318Z,64.93
2019-03-30T19:01:59.791Z,46.83
2019-03-30T19:04:28.285Z,36.40
2019-03-30T19:06:56.749Z,32.27
2019-03-30T19:09:25.229Z,29.50
2019-03-30T19:11:53.742Z,24.13
2019-03-30T19:14:22.222Z,28.80
2019-03-30T19:16:50.696Z,28.20
2019-03-30T19:19:19.242Z,59.40
2019-03-30T19:21:47.690Z,35.20
2019-03-30T19:24:16.158Z,31.00
2019-03-30T19:26:44.648Z,39.90
2019-03-30T19:29:13.209Z,44.80
2019-03-30T19:31:41.663Z,44.40
2019-03-30T19:34:10.164Z,43.00
2019-03-30T19:36:38.638Z,42.83
2019-03-30T19:39:08.664Z,36.40
2019-03-30T19:41:37.170Z,41.70
2019-03-30T19:44:05.638Z,39.30
2019-03-30T19:46:35.349Z,43.00
2019-03-30T19:49:03.914Z,39.07
2019-03-30T19:51:32.397Z,41.53
2019-03-30T19:54:01.866Z,44.90
2019-03-30T19:56:30.371Z,46.63
2019-03-30T19:59:10.134Z,43.63
2019-03-30T20:01:29.421Z,42.73
2019-03-30T20:03:57.930Z,37.30
2019-03-30T20:06:26.400Z,35.87
2019-03-30T20:08:54.884Z,34.13
2019-03-30T20:11:23.485Z,32.20
2019-03-30T20:13:51.954Z,33.70
2019-03-30T20:16:20.416Z,35.50
2019-03-30T20:18:48.924Z,35.93
2019-03-30T20:21:17.458Z,36.90
2019-03-30T20:23:45.922Z,41.80
2019-03-30T20:26:14.446Z,41.53
2019-03-30T20:28:42.914Z,34.03
2019-03-30T20:31:11.395Z,33.93
2019-03-30T20:33:39.892Z,37.83
2019-03-30T20:36:08.364Z,37.50
2019-03-30T20:38:36.823Z,38.33
2019-03-30T20:41:05.335Z,33.07
2019-03-30T20:43:33.791Z,32.97
2019-03-30T20:46:02.270Z,38.50
2019-03-30T20:48:30.793Z,44.07
2019-03-30T20:50:59.261Z,44.17
2019-03-30T20:53:27.808Z,42.60
2019-03-30T20:55:57.613Z,46.70
2019-03-30T20:58:26.082Z,42.80
2019-03-30T21:00:54.554Z,39.30
2019-03-30T21:03:23.160Z,42.97
2019-03-30T21:05:51.632Z,40.77
2019-03-30T21:08:20.117Z,38.77
2019-03-30T21:10:48.625Z,47.20
2019-03-30T21:13:17.088Z,42.27
2019-03-30T21:15:45.679Z,44.83
2019-03-30T21:18:14.191Z,42.17
2019-03-30T21:20:42.671Z,36.90
2019-03-30T21:23:11.155Z,28.80
2019-03-30T21:25:39.670Z,34.17
2019-03-30T21:28:08.151Z,47.13
2019-03-30T21:30:36.614Z,52.70
2019-03-30T21:33:05.203Z,53.83
2019-03-30T21:35:33.673Z,49.23
2019-03-30T21:38:02.154Z,55.90
2019-03-30T21:40:30.643Z,54.10
2019-03-30T21:42:59.113Z,52.20
2019-03-30T21:45:27.593Z,38.57
2019-03-30T21:47:56.110Z,46.77
2019-03-30T21:50:24.590Z,36.57
2019-03-30T21:52:53.068Z,38.50
2019-03-30T21:55:21.573Z,45.37
2019-03-30T21:57:51.902Z,36.00
2019-03-30T22:00:37.475Z,37.97
2019-03-30T22:03:06.207Z,36.83
2019-03-30T22:05:35.243Z,30.50
2019-03-30T22:08:04.664Z,33.13
2019-03-30T22:10:33.125Z,37.83
2019-03-30T22:13:01.594Z,41.30
2019-03-30T22:15:30.378Z,30.70
2019-03-30T22:17:58.853Z,34.60
2019-03-30T22:20:27.378Z,26.93
2019-03-30T22:22:55.877Z,34.13
2019-03-30T22:25:24.338Z,30.43
2019-03-30T22:27:52.806Z,29.00
2019-03-30T22:30:24.934Z,34.17
2019-03-30T22:32:51.521Z,27.00
2019-03-30T22:35:19.987Z,33.00
2019-03-30T22:37:48.485Z,29.90
2019-03-30T22:40:16.948Z,39.10
2019-03-30T22:42:45.416Z,33.17
2019-03-30T22:45:13.905Z,39.37
2019-03-30T22:47:42.371Z,33.03
2019-03-30T22:50:11.080Z,42.77
2019-03-30T22:52:39.575Z,44.77
2019-03-30T22:55:08.588Z,40.50
2019-03-30T22:57:37.047Z,46.87
2019-03-30T23:00:07.487Z,41.17
2019-03-30T23:02:35.951Z,39.67
2019-03-30T23:05:04.867Z,47.83
2019-03-30T23:07:33.394Z,46.87
2019-03-30T23:10:01.934Z,48.33
2019-03-30T23:12:30.402Z,44.30
2019-03-30T23:14:58.920Z,54.23
2019-03-30T23:17:27.387Z,49.60
2019-03-30T23:19:55.862Z,50.67
2019-03-30T23:22:24.364Z,56.23
2019-03-30T23:24:52.843Z,51.53
2019-03-30T23:27:21.308Z,61.73
2019-03-30T23:29:49.816Z,61.60
2019-03-30T23:32:18.293Z,71.97
2019-03-30T23:34:46.752Z,56.07
2019-03-30T23:37:15.257Z,56.87
2019-03-30T23:39:43.725Z,59.60
2019-03-30T23:42:12.261Z,62.10
2019-03-30T23:44:40.749Z,72.90
2019-03-30T23:47:09.226Z,68.00
2019-03-30T23:49:37.708Z,78.17
2019-03-30T23:52:06.205Z,84.33
2019-03-30T23:54:34.677Z,93.10
2019-03-30T23:57:03.139Z,96.03
2019-03-30T23:59:31.662Z,97.43
